sensor_id;sensor_type;location;lat;lon;timestamp;pressure;altitude;pressure_sealevel;temperature;humidity
16481;BME280;44634;54.110;12.138;2023-12-20T00:00:02;100389.56;;;9.66;100.00
16481;BME280;44634;54.110;12.138;2023-12-20T00:02:32;100389.03;;;9.72;100.00
16481;BME280;44634;54.110;12.138;2023-12-20T00:05:01;100379.56;;;9.60;100.00
16481;BME280;44634;54.110;12.138;2023-12-20T00:07:30;100374.41;;;9.77;100.00
16481;BME280;44634;54.110;12.138;2023-12-20T00:10:00;100368.16;;;9.69;100.00
16481;BME280;44634;54.110;12.138;2023-12-20T00:12:28;100374.69;;;9.65;100.00
16481;BME280;44634;54.110;12.138;2023-12-20T00:15:08;100362.06;;;9.39;100.00
16481;BME280;44634;54.110;12.138;2023-12-20T00:17:37;100382.34;;;9.58;100.00
16481;BME280;44634;54.110;12.138;2023-12-20T00:20:06;100368.19;;;9.49;100.00
16481;BME280;44634;54.110;12.138;2023-12-20T00:22:35;100374.16;;;9.32;100.00
16481;BME280;44634;54.110;12.138;2023-12-20T00:25:04;100384.59;;;9.43;100.00
16481;BME280;44634;54.110;12.138;2023-12-20T00:27:33;100370.81;;;9.30;100.00
16481;BME280;44634;54.110;12.138;2023-12-20T00:30:02;100367.63;;;9.46;100.00
16481;BME280;44634;54.110;12.138;2023-12-20T00:32:30;100357.50;;;9.12;100.00
16481;BME280;44634;54.110;12.138;2023-12-20T00:35:00;100360.69;;;9.16;100.00
16481;BME280;44634;54.110;12.138;2023-12-20T00:37:28;100361.09;;;9.11;100.00
16481;BME280;44634;54.110;12.138;2023-12-20T00:39:57;100346.91;;;9.03;100.00
16481;BME280;44634;54.110;12.138;2023-12-20T00:42:36;100352.88;;;8.95;100.00
16481;BME280;44634;54.110;12.138;2023-12-20T00:45:05;100355.38;;;9.06;100.00
16481;BME280;44634;54.110;12.138;2023-12-20T00:47:34;100395.72;;;8.47;100.00
16481;BME280;44634;54.110;12.138;2023-12-20T00:50:04;100386.91;;;8.98;100.00
16481;BME280;44634;54.110;12.138;2023-12-20T00:52:34;100381.44;;;8.90;100.00
16481;BME280;44634;54.110;12.138;2023-12-20T00:55:03;100384.53;;;8.55;100.00
16481;BME280;44634;54.110;12.138;2023-12-20T00:57:32;100390.75;;;8.94;100.00
16481;BME280;44634;54.110;12.138;2023-12-20T01:00:00;100366.63;;;9.08;100.00
16481;BME280;44634;54.110;12.138;2023-12-20T01:02:28;100362.13;;;8.80;100.00
16481;BME280;44634;54.110;12.138;2023-12-20T01:04:57;100357.56;;;8.82;100.00
16481;BME280;44634;54.110;12.138;2023-12-20T01:07:27;100355.78;;;8.42;100.00
16481;BME280;44634;54.110;12.138;2023-12-20T01:10:00;100360.78;;;8.95;100.00
16481;BME280;44634;54.110;12.138;2023-12-20T01:12:28;100347.31;;;8.88;100.00
16481;BME280;44634;54.110;12.138;2023-12-20T01:14:56;100336.63;;;8.90;100.00
16481;BME280;44634;54.110;12.138;2023-12-20T01:17:25;100342.00;;;8.79;100.00
16481;BME280;44634;54.110;12.138;2023-12-20T01:19:54;100321.47;;;8.73;100.00
16481;BME280;44634;54.110;12.138;2023-12-20T01:22:25;100319.78;;;8.62;100.00
16481;BME280;44634;54.110;12.138;2023-12-20T01:24:59;100321.72;;;8.60;100.00
16481;BME280;44634;54.110;12.138;2023-12-20T01:27:29;100318.19;;;8.90;100.00
16481;BME280;44634;54.110;12.138;2023-12-20T01:29:57;100315.31;;;8.43;100.00
16481;BME280;44634;54.110;12.138;2023-12-20T01:32:25;100326.31;;;8.68;100.00
16481;BME280;44634;54.110;12.138;2023-12-20T01:34:54;100321.59;;;8.61;100.00
16481;BME280;44634;54.110;12.138;2023-12-20T01:37:27;100337.22;;;8.53;100.00
16481;BME280;44634;54.110;12.138;2023-12-20T01:39:56;100353.22;;;8.31;100.00
16481;BME280;44634;54.110;12.138;2023-12-20T01:42:26;100354.25;;;8.40;100.00
16481;BME280;44634;54.110;12.138;2023-12-20T01:44:56;100365.78;;;8.48;100.00
16481;BME280;44634;54.110;12.138;2023-12-20T01:47:27;100349.13;;;9.07;100.00
16481;BME280;44634;54.110;12.138;2023-12-20T01:49:55;100342.25;;;8.56;100.00
16481;BME280;44634;54.110;12.138;2023-12-20T01:52:25;100323.47;;;9.09;100.00
16481;BME280;44634;54.110;12.138;2023-12-20T01:54:54;100348.41;;;8.36;100.00
16481;BME280;44634;54.110;12.138;2023-12-20T01:57:29;100368.09;;;8.72;100.00
16481;BME280;44634;54.110;12.138;2023-12-20T02:00:01;100335.81;;;8.99;100.00
16481;BME280;44634;54.110;12.138;2023-12-20T02:02:29;100338.84;;;8.85;100.00
16481;BME280;44634;54.110;12.138;2023-12-20T02:04:58;100344.44;;;8.51;100.00
16481;BME280;44634;54.110;12.138;2023-12-20T02:07:27;100327.34;;;8.86;100.00
16481;BME280;44634;54.110;12.138;2023-12-20T02:09:55;100307.50;;;9.01;100.00
16481;BME280;44634;54.110;12.138;2023-12-20T02:12:23;100295.00;;;8.74;100.00
16481;BME280;44634;54.110;12.138;2023-12-20T02:14:53;100301.72;;;8.48;100.00
16481;BME280;44634;54.110;12.138;2023-12-20T02:17:21;100307.31;;;8.64;100.00
16481;BME280;44634;54.110;12.138;2023-12-20T02:19:49;100294.81;;;8.56;100.00
16481;BME280;44634;54.110;12.138;2023-12-20T02:22:19;100307.84;;;8.68;100.00
16481;BME280;44634;54.110;12.138;2023-12-20T02:24:47;100290.31;;;8.97;100.00
16481;BME280;44634;54.110;12.138;2023-12-20T02:27:15;100280.72;;;8.86;100.00
16481;BME280;44634;54.110;12.138;2023-12-20T02:29:47;100283.44;;;8.65;100.00
16481;BME280;44634;54.110;12.138;2023-12-20T02:32:16;100291.41;;;8.85;100.00
16481;BME280;44634;54.110;12.138;2023-12-20T02:34:45;100284.13;;;8.68;100.00
16481;BME280;44634;54.110;12.138;2023-12-20T02:37:13;100263.66;;;9.00;100.00
16481;BME280;44634;54.110;12.138;2023-12-20T02:39:43;100281.66;;;8.56;100.00
16481;BME280;44634;54.110;12.138;2023-12-20T02:42:11;100288.84;;;8.64;100.00
16481;BME280;44634;54.110;12.138;2023-12-20T02:44:40;100255.16;;;8.97;100.00
16481;BME280;44634;54.110;12.138;2023-12-20T02:47:10;100239.75;;;8.82;100.00
16481;BME280;44634;54.110;12.138;2023-12-20T02:49:39;100202.16;;;8.90;100.00
16481;BME280;44634;54.110;12.138;2023-12-20T02:52:07;100214.78;;;9.06;100.00
16481;BME280;44634;54.110;12.138;2023-12-20T02:54:39;100194.69;;;8.76;100.00
16481;BME280;44634;54.110;12.138;2023-12-20T02:57:08;100197.72;;;8.81;100.00
16481;BME280;44634;54.110;12.138;2023-12-20T02:59:37;100181.72;;;9.21;100.00
16481;BME280;44634;54.110;12.138;2023-12-20T03:02:06;100183.28;;;9.14;100.00
16481;BME280;44634;54.110;12.138;2023-12-20T03:04:35;100186.59;;;8.29;100.00
16481;BME280;44634;54.110;12.138;2023-12-20T03:07:03;100195.50;;;8.95;100.00
16481;BME280;44634;54.110;12.138;2023-12-20T03:09:31;100187.03;;;8.82;100.00
16481;BME280;44634;54.110;12.138;2023-12-20T03:12:21;100169.44;;;8.83;100.00
16481;BME280;44634;54.110;12.138;2023-12-20T03:14:51;100172.63;;;8.57;100.00
16481;BME280;44634;54.110;12.138;2023-12-20T03:17:28;100185.63;;;9.07;100.00
16481;BME280;44634;54.110;12.138;2023-12-20T03:19:56;100161.13;;;8.87;100.00
16481;BME280;44634;54.110;12.138;2023-12-20T03:22:26;100155.69;;;8.89;100.00
16481;BME280;44634;54.110;12.138;2023-12-20T03:24:54;100160.56;;;8.45;100.00
16481;BME280;44634;54.110;12.138;2023-12-20T03:27:26;100156.81;;;8.77;100.00
16481;BME280;44634;54.110;12.138;2023-12-20T03:29:59;100141.72;;;8.69;100.00
16481;BME280;44634;54.110;12.138;2023-12-20T03:32:29;100140.72;;;8.89;100.00
16481;BME280;44634;54.110;12.138;2023-12-20T03:35:00;100136.69;;;8.66;100.00
16481;BME280;44634;54.110;12.138;2023-12-20T03:37:28;100155.00;;;8.39;100.00
16481;BME280;44634;54.110;12.138;2023-12-20T03:39:57;100133.91;;;8.68;100.00
16481;BME280;44634;54.110;12.138;2023-12-20T03:42:27;100151.09;;;8.81;100.00
16481;BME280;44634;54.110;12.138;2023-12-20T03:44:55;100129.38;;;8.70;100.00
16481;BME280;44634;54.110;12.138;2023-12-20T03:47:26;100138.66;;;8.54;100.00
16481;BME280;44634;54.110;12.138;2023-12-20T03:49:55;100122.94;;;8.82;100.00
16481;BME280;44634;54.110;12.138;2023-12-20T03:52:25;100130.41;;;9.06;100.00
16481;BME280;44634;54.110;12.138;2023-12-20T03:54:57;100112.69;;;8.79;100.00
16481;BME280;44634;54.110;12.138;2023-12-20T03:57:27;100130.59;;;8.37;100.00
16481;BME280;44634;54.110;12.138;2023-12-20T03:59:55;100133.50;;;8.82;100.00
16481;BME280;44634;54.110;12.138;2023-12-20T04:02:25;100133.66;;;8.61;100.00
16481;BME280;44634;54.110;12.138;2023-12-20T04:04:53;100124.47;;;8.94;100.00
16481;BME280;44634;54.110;12.138;2023-12-20T04:07:20;100103.94;;;8.88;100.00
16481;BME280;44634;54.110;12.138;2023-12-20T04:09:48;100085.94;;;8.83;100.00
16481;BME280;44634;54.110;12.138;2023-12-20T04:12:18;100083.25;;;8.93;100.00
16481;BME280;44634;54.110;12.138;2023-12-20T04:14:48;100106.63;;;8.59;100.00
16481;BME280;44634;54.110;12.138;2023-12-20T04:17:19;100110.88;;;8.79;100.00
16481;BME280;44634;54.110;12.138;2023-12-20T04:19:49;100102.72;;;8.63;100.00
16481;BME280;44634;54.110;12.138;2023-12-20T04:22:19;100101.16;;;8.80;100.00
16481;BME280;44634;54.110;12.138;2023-12-20T04:24:47;100092.03;;;9.21;100.00
16481;BME280;44634;54.110;12.138;2023-12-20T04:27:15;100072.69;;;8.93;100.00
16481;BME280;44634;54.110;12.138;2023-12-20T04:29:43;100095.75;;;8.91;100.00
16481;BME280;44634;54.110;12.138;2023-12-20T04:32:13;100102.44;;;8.85;100.00
16481;BME280;44634;54.110;12.138;2023-12-20T04:34:41;100088.97;;;8.79;100.00
16481;BME280;44634;54.110;12.138;2023-12-20T04:37:10;100077.16;;;9.30;100.00
16481;BME280;44634;54.110;12.138;2023-12-20T04:39:39;100088.97;;;8.88;100.00
16481;BME280;44634;54.110;12.138;2023-12-20T04:42:08;100072.94;;;9.09;100.00
16481;BME280;44634;54.110;12.138;2023-12-20T04:44:36;100069.03;;;8.57;100.00
16481;BME280;44634;54.110;12.138;2023-12-20T04:47:04;100080.56;;;8.46;100.00
16481;BME280;44634;54.110;12.138;2023-12-20T04:49:35;100090.47;;;9.01;100.00
16481;BME280;44634;54.110;12.138;2023-12-20T04:52:04;100082.84;;;8.98;100.00
16481;BME280;44634;54.110;12.138;2023-12-20T04:54:32;100072.69;;;8.93;100.00
16481;BME280;44634;54.110;12.138;2023-12-20T04:57:00;100075.84;;;9.06;100.00
16481;BME280;44634;54.110;12.138;2023-12-20T04:59:29;100060.78;;;8.89;100.00
16481;BME280;44634;54.110;12.138;2023-12-20T05:01:59;100057.53;;;9.14;100.00
16481;BME280;44634;54.110;12.138;2023-12-20T05:04:27;100059.59;;;8.74;100.00
16481;BME280;44634;54.110;12.138;2023-12-20T05:06:57;100055.59;;;9.07;100.00
16481;BME280;44634;54.110;12.138;2023-12-20T05:09:26;100050.94;;;8.91;100.00
16481;BME280;44634;54.110;12.138;2023-12-20T05:11:54;100034.72;;;8.86;100.00
16481;BME280;44634;54.110;12.138;2023-12-20T05:14:22;100049.13;;;8.82;100.00
16481;BME280;44634;54.110;12.138;2023-12-20T05:16:51;100064.16;;;8.62;100.00
16481;BME280;44634;54.110;12.138;2023-12-20T05:19:20;100042.56;;;8.58;100.00
16481;BME280;44634;54.110;12.138;2023-12-20T05:21:48;100056.50;;;8.88;100.00
16481;BME280;44634;54.110;12.138;2023-12-20T05:24:18;100063.56;;;8.87;100.00
16481;BME280;44634;54.110;12.138;2023-12-20T05:26:46;100036.25;;;8.79;100.00
16481;BME280;44634;54.110;12.138;2023-12-20T05:29:18;100010.16;;;8.85;100.00
16481;BME280;44634;54.110;12.138;2023-12-20T05:31:46;100017.25;;;8.85;100.00
16481;BME280;44634;54.110;12.138;2023-12-20T05:34:15;100005.78;;;9.31;100.00
16481;BME280;44634;54.110;12.138;2023-12-20T05:36:46;100003.03;;;9.23;100.00
16481;BME280;44634;54.110;12.138;2023-12-20T05:39:14;99993.06;;;8.99;100.00
16481;BME280;44634;54.110;12.138;2023-12-20T05:41:43;100019.16;;;8.92;100.00
16481;BME280;44634;54.110;12.138;2023-12-20T05:44:12;100032.31;;;9.02;100.00
16481;BME280;44634;54.110;12.138;2023-12-20T05:46:39;100022.28;;;9.06;100.00
16481;BME280;44634;54.110;12.138;2023-12-20T05:49:07;100023.00;;;8.61;100.00
16481;BME280;44634;54.110;12.138;2023-12-20T05:51:35;100047.28;;;8.55;100.00
16481;BME280;44634;54.110;12.138;2023-12-20T05:54:03;100050.69;;;8.75;100.00
16481;BME280;44634;54.110;12.138;2023-12-20T05:56:31;100047.81;;;8.58;100.00
16481;BME280;44634;54.110;12.138;2023-12-20T05:59:01;100080.69;;;8.35;100.00
16481;BME280;44634;54.110;12.138;2023-12-20T06:01:28;100061.78;;;8.78;100.00
16481;BME280;44634;54.110;12.138;2023-12-20T06:03:56;100044.06;;;8.61;100.00
16481;BME280;44634;54.110;12.138;2023-12-20T06:06:24;100109.50;;;8.17;100.00
16481;BME280;44634;54.110;12.138;2023-12-20T06:08:52;100215.22;;;8.62;100.00
16481;BME280;44634;54.110;12.138;2023-12-20T06:11:20;100143.16;;;8.23;100.00
16481;BME280;44634;54.110;12.138;2023-12-20T06:13:47;100196.94;;;8.11;100.00
16481;BME280;44634;54.110;12.138;2023-12-20T06:16:21;100159.56;;;8.27;100.00
16481;BME280;44634;54.110;12.138;2023-12-20T06:22:10;100171.59;;;8.20;100.00
16481;BME280;44634;54.110;12.138;2023-12-20T06:24:38;100165.22;;;7.72;100.00
16481;BME280;44634;54.110;12.138;2023-12-20T06:27:05;100169.28;;;8.36;100.00
16481;BME280;44634;54.110;12.138;2023-12-20T06:29:33;100150.44;;;8.41;100.00
16481;BME280;44634;54.110;12.138;2023-12-20T06:32:03;100134.63;;;8.50;100.00
16481;BME280;44634;54.110;12.138;2023-12-20T06:34:31;100137.81;;;8.34;100.00
16481;BME280;44634;54.110;12.138;2023-12-20T06:36:59;100128.34;;;8.32;100.00
16481;BME280;44634;54.110;12.138;2023-12-20T06:39:27;100116.81;;;8.04;100.00
16481;BME280;44634;54.110;12.138;2023-12-20T06:41:55;100102.59;;;8.64;100.00
16481;BME280;44634;54.110;12.138;2023-12-20T06:44:23;100118.00;;;8.50;100.00
16481;BME280;44634;54.110;12.138;2023-12-20T06:46:51;100103.00;;;8.50;100.00
16481;BME280;44634;54.110;12.138;2023-12-20T06:49:20;100105.47;;;8.23;100.00
16481;BME280;44634;54.110;12.138;2023-12-20T06:51:47;100121.00;;;8.16;100.00
16481;BME280;44634;54.110;12.138;2023-12-20T06:54:15;100101.00;;;7.94;100.00
16481;BME280;44634;54.110;12.138;2023-12-20T06:56:43;100109.72;;;7.95;100.00
16481;BME280;44634;54.110;12.138;2023-12-20T06:59:11;100092.41;;;7.83;100.00
16481;BME280;44634;54.110;12.138;2023-12-20T07:01:38;100069.69;;;7.91;100.00
16481;BME280;44634;54.110;12.138;2023-12-20T07:04:06;100047.28;;;8.16;100.00
16481;BME280;44634;54.110;12.138;2023-12-20T07:06:35;100044.22;;;8.21;100.00
16481;BME280;44634;54.110;12.138;2023-12-20T07:09:03;100040.06;;;8.57;100.00
16481;BME280;44634;54.110;12.138;2023-12-20T07:11:31;100048.38;;;8.23;100.00
16481;BME280;44634;54.110;12.138;2023-12-20T07:13:58;100052.53;;;8.16;100.00
16481;BME280;44634;54.110;12.138;2023-12-20T07:16:27;100055.19;;;8.26;100.00
16481;BME280;44634;54.110;12.138;2023-12-20T07:18:55;100051.97;;;8.32;100.00
16481;BME280;44634;54.110;12.138;2023-12-20T07:21:23;100061.97;;;8.38;100.00
16481;BME280;44634;54.110;12.138;2023-12-20T07:23:52;100078.16;;;7.95;100.00
16481;BME280;44634;54.110;12.138;2023-12-20T07:26:20;100081.94;;;8.50;100.00
16481;BME280;44634;54.110;12.138;2023-12-20T07:28:48;100047.81;;;8.68;100.00
16481;BME280;44634;54.110;12.138;2023-12-20T07:31:16;100085.38;;;8.22;100.00
16481;BME280;44634;54.110;12.138;2023-12-20T07:33:44;100085.81;;;8.17;100.00
16481;BME280;44634;54.110;12.138;2023-12-20T07:36:12;100104.91;;;8.10;100.00
16481;BME280;44634;54.110;12.138;2023-12-20T07:38:39;100084.00;;;8.27;100.00
16481;BME280;44634;54.110;12.138;2023-12-20T07:41:10;100100.94;;;8.25;100.00
16481;BME280;44634;54.110;12.138;2023-12-20T07:43:38;100075.81;;;8.30;100.00
16481;BME280;44634;54.110;12.138;2023-12-20T07:46:05;100073.47;;;8.37;100.00
16481;BME280;44634;54.110;12.138;2023-12-20T07:48:34;100066.81;;;8.62;100.00
16481;BME280;44634;54.110;12.138;2023-12-20T07:51:02;100068.22;;;8.47;100.00
16481;BME280;44634;54.110;12.138;2023-12-20T07:53:29;100062.38;;;8.33;100.00
16481;BME280;44634;54.110;12.138;2023-12-20T07:55:57;100063.38;;;8.42;100.00
16481;BME280;44634;54.110;12.138;2023-12-20T07:58:27;100065.59;;;8.37;100.00
16481;BME280;44634;54.110;12.138;2023-12-20T08:01:15;100043.00;;;8.25;100.00
16481;BME280;44634;54.110;12.138;2023-12-20T08:03:43;100023.81;;;8.52;100.00
16481;BME280;44634;54.110;12.138;2023-12-20T08:06:11;100029.69;;;8.36;100.00
16481;BME280;44634;54.110;12.138;2023-12-20T08:08:39;100031.47;;;8.45;100.00
16481;BME280;44634;54.110;12.138;2023-12-20T08:11:10;100030.63;;;8.06;100.00
16481;BME280;44634;54.110;12.138;2023-12-20T08:13:39;100030.66;;;8.54;100.00
16481;BME280;44634;54.110;12.138;2023-12-20T08:16:07;100028.56;;;8.39;100.00
16481;BME280;44634;54.110;12.138;2023-12-20T08:18:35;100029.81;;;8.34;100.00
16481;BME280;44634;54.110;12.138;2023-12-20T08:21:03;100056.16;;;8.34;100.00
16481;BME280;44634;54.110;12.138;2023-12-20T08:23:33;100053.78;;;8.22;100.00
16481;BME280;44634;54.110;12.138;2023-12-20T08:26:03;100043.22;;;7.93;100.00
16481;BME280;44634;54.110;12.138;2023-12-20T08:28:31;100061.44;;;8.44;100.00
16481;BME280;44634;54.110;12.138;2023-12-20T08:31:00;100055.72;;;8.29;100.00
16481;BME280;44634;54.110;12.138;2023-12-20T08:33:28;100092.91;;;8.46;100.00
16481;BME280;44634;54.110;12.138;2023-12-20T08:35:55;100098.69;;;8.01;100.00
16481;BME280;44634;54.110;12.138;2023-12-20T08:38:24;100104.38;;;8.16;100.00
16481;BME280;44634;54.110;12.138;2023-12-20T08:40:51;100096.66;;;8.43;100.00
16481;BME280;44634;54.110;12.138;2023-12-20T08:43:19;100092.31;;;8.23;100.00
16481;BME280;44634;54.110;12.138;2023-12-20T08:45:47;100085.38;;;8.31;100.00
16481;BME280;44634;54.110;12.138;2023-12-20T08:48:16;100084.00;;;8.27;100.00
16481;BME280;44634;54.110;12.138;2023-12-20T08:50:44;100080.28;;;8.49;100.00
16481;BME280;44634;54.110;12.138;2023-12-20T08:53:13;100073.19;;;8.50;100.00
16481;BME280;44634;54.110;12.138;2023-12-20T08:55:42;100061.81;;;8.30;100.00
16481;BME280;44634;54.110;12.138;2023-12-20T08:58:09;100040.75;;;7.91;100.00
16481;BME280;44634;54.110;12.138;2023-12-20T09:00:37;100039.91;;;7.91;100.00
16481;BME280;44634;54.110;12.138;2023-12-20T09:03:05;100019.69;;;8.30;100.00
16481;BME280;44634;54.110;12.138;2023-12-20T09:05:34;100005.00;;;8.18;100.00
16481;BME280;44634;54.110;12.138;2023-12-20T09:08:02;100001.09;;;8.22;100.00
16481;BME280;44634;54.110;12.138;2023-12-20T09:10:30;99987.84;;;7.85;100.00
16481;BME280;44634;54.110;12.138;2023-12-20T09:12:57;99990.16;;;8.07;100.00
16481;BME280;44634;54.110;12.138;2023-12-20T09:15:25;99962.72;;;8.29;100.00
16481;BME280;44634;54.110;12.138;2023-12-20T09:17:53;99963.56;;;8.39;100.00
16481;BME280;44634;54.110;12.138;2023-12-20T09:20:21;99933.66;;;8.95;100.00
16481;BME280;44634;54.110;12.138;2023-12-20T09:22:51;99887.31;;;9.20;100.00
16481;BME280;44634;54.110;12.138;2023-12-20T09:25:19;99913.38;;;8.41;100.00
16481;BME280;44634;54.110;12.138;2023-12-20T09:27:48;99895.97;;;8.57;100.00
16481;BME280;44634;54.110;12.138;2023-12-20T09:30:16;100281.91;;;8.13;100.00
16481;BME280;44634;54.110;12.138;2023-12-20T09:32:53;100236.09;;;8.35;100.00
16481;BME280;44634;54.110;12.138;2023-12-20T09:35:21;100149.88;;;8.37;100.00
16481;BME280;44634;54.110;12.138;2023-12-20T09:37:49;100070.28;;;8.62;100.00
16481;BME280;44634;54.110;12.138;2023-12-20T09:40:19;100034.66;;;8.58;100.00
16481;BME280;44634;54.110;12.138;2023-12-20T09:42:47;99995.66;;;8.62;100.00
16481;BME280;44634;54.110;12.138;2023-12-20T09:45:17;100010.25;;;8.08;100.00
16481;BME280;44634;54.110;12.138;2023-12-20T09:47:47;99993.03;;;8.52;100.00
16481;BME280;44634;54.110;12.138;2023-12-20T09:50:16;99976.69;;;8.49;100.00
16481;BME280;44634;54.110;12.138;2023-12-20T09:52:45;100002.09;;;7.92;100.00
16481;BME280;44634;54.110;12.138;2023-12-20T09:55:13;99991.84;;;8.08;100.00
16481;BME280;44634;54.110;12.138;2023-12-20T09:57:46;99974.53;;;8.15;100.00
16481;BME280;44634;54.110;12.138;2023-12-20T10:00:14;99953.72;;;8.22;100.00
16481;BME280;44634;54.110;12.138;2023-12-20T10:02:45;99933.22;;;8.25;100.00
16481;BME280;44634;54.110;12.138;2023-12-20T10:05:15;99909.13;;;7.91;100.00
16481;BME280;44634;54.110;12.138;2023-12-20T10:07:45;99927.13;;;8.25;100.00
16481;BME280;44634;54.110;12.138;2023-12-20T10:10:14;99933.78;;;8.10;100.00
16481;BME280;44634;54.110;12.138;2023-12-20T10:12:42;99959.81;;;8.22;100.00
16481;BME280;44634;54.110;12.138;2023-12-20T10:15:29;99961.34;;;8.15;100.00
16481;BME280;44634;54.110;12.138;2023-12-20T10:17:58;99960.22;;;8.18;100.00
16481;BME280;44634;54.110;12.138;2023-12-20T10:20:27;99956.50;;;8.20;100.00
16481;BME280;44634;54.110;12.138;2023-12-20T10:22:56;99956.19;;;8.23;100.00
16481;BME280;44634;54.110;12.138;2023-12-20T10:25:24;99952.72;;;8.32;100.00
16481;BME280;44634;54.110;12.138;2023-12-20T10:30:36;99952.34;;;8.18;100.00
16481;BME280;44634;54.110;12.138;2023-12-20T10:33:05;99931.09;;;8.39;100.00
16481;BME280;44634;54.110;12.138;2023-12-20T10:35:33;99922.78;;;8.43;100.00
16481;BME280;44634;54.110;12.138;2023-12-20T10:38:02;99896.97;;;8.56;100.00
16481;BME280;44634;54.110;12.138;2023-12-20T10:40:30;99896.44;;;8.33;100.00
16481;BME280;44634;54.110;12.138;2023-12-20T10:42:59;99922.88;;;8.51;100.00
16481;BME280;44634;54.110;12.138;2023-12-20T10:45:28;99918.88;;;7.71;100.00
16481;BME280;44634;54.110;12.138;2023-12-20T10:47:57;99955.53;;;8.12;100.00
16481;BME280;44634;54.110;12.138;2023-12-20T10:50:26;99944.31;;;8.10;100.00
16481;BME280;44634;54.110;12.138;2023-12-20T10:52:54;99970.78;;;7.89;100.00
16481;BME280;44634;54.110;12.138;2023-12-20T10:55:22;99918.25;;;8.16;100.00
16481;BME280;44634;54.110;12.138;2023-12-20T10:57:50;99928.09;;;8.14;100.00
16481;BME280;44634;54.110;12.138;2023-12-20T11:00:19;99892.22;;;7.94;100.00
16481;BME280;44634;54.110;12.138;2023-12-20T11:02:49;99892.56;;;8.38;100.00
16481;BME280;44634;54.110;12.138;2023-12-20T11:05:25;99896.66;;;8.13;100.00
16481;BME280;44634;54.110;12.138;2023-12-20T11:07:58;99887.56;;;8.44;100.00
16481;BME280;44634;54.110;12.138;2023-12-20T11:10:31;99879.22;;;8.02;100.00
16481;BME280;44634;54.110;12.138;2023-12-20T11:13:02;99876.94;;;8.17;100.00
16481;BME280;44634;54.110;12.138;2023-12-20T11:15:38;99863.19;;;8.32;100.00
16481;BME280;44634;54.110;12.138;2023-12-20T11:18:06;99854.44;;;8.42;100.00
16481;BME280;44634;54.110;12.138;2023-12-20T11:20:40;99860.84;;;8.29;100.00
16481;BME280;44634;54.110;12.138;2023-12-20T11:23:08;99858.78;;;8.60;100.00
16481;BME280;44634;54.110;12.138;2023-12-20T11:25:48;99833.41;;;8.87;100.00
16481;BME280;44634;54.110;12.138;2023-12-20T11:28:16;99816.97;;;8.48;100.00
16481;BME280;44634;54.110;12.138;2023-12-20T11:30:49;99798.09;;;8.52;100.00
16481;BME280;44634;54.110;12.138;2023-12-20T11:33:21;99784.88;;;8.80;100.00
16481;BME280;44634;54.110;12.138;2023-12-20T11:35:50;99758.97;;;8.93;100.00
16481;BME280;44634;54.110;12.138;2023-12-20T11:38:19;99737.31;;;10.29;100.00
16481;BME280;44634;54.110;12.138;2023-12-20T11:40:48;99677.56;;;10.02;100.00
16481;BME280;44634;54.110;12.138;2023-12-20T11:43:29;99672.91;;;10.38;100.00
16481;BME280;44634;54.110;12.138;2023-12-20T11:45:55;99629.16;;;10.52;100.00
16481;BME280;44634;54.110;12.138;2023-12-20T11:48:29;99653.91;;;9.24;100.00
16481;BME280;44634;54.110;12.138;2023-12-20T11:51:00;99638.38;;;9.13;100.00
16481;BME280;44634;54.110;12.138;2023-12-20T11:53:30;99613.47;;;10.66;100.00
16481;BME280;44634;54.110;12.138;2023-12-20T11:55:58;99605.84;;;10.55;100.00
16481;BME280;44634;54.110;12.138;2023-12-20T11:58:26;99601.56;;;10.87;100.00
16481;BME280;44634;54.110;12.138;2023-12-20T12:00:55;99519.56;;;9.81;100.00
16481;BME280;44634;54.110;12.138;2023-12-20T12:03:26;99736.41;;;10.20;100.00
16481;BME280;44634;54.110;12.138;2023-12-20T12:05:53;99778.91;;;10.35;100.00
16481;BME280;44634;54.110;12.138;2023-12-20T12:08:23;99763.78;;;10.53;100.00
16481;BME280;44634;54.110;12.138;2023-12-20T12:10:51;99876.06;;;10.75;100.00
16481;BME280;44634;54.110;12.138;2023-12-20T12:13:20;99888.94;;;10.78;100.00
16481;BME280;44634;54.110;12.138;2023-12-20T12:15:48;99922.59;;;11.02;100.00
16481;BME280;44634;54.110;12.138;2023-12-20T12:18:16;99928.16;;;10.91;100.00
16481;BME280;44634;54.110;12.138;2023-12-20T12:20:46;99921.19;;;10.82;100.00
16481;BME280;44634;54.110;12.138;2023-12-20T12:23:14;99976.66;;;10.22;100.00
16481;BME280;44634;54.110;12.138;2023-12-20T12:25:51;99882.31;;;9.88;100.00
16481;BME280;44634;54.110;12.138;2023-12-20T12:28:19;99879.97;;;9.67;100.00
16481;BME280;44634;54.110;12.138;2023-12-20T12:30:55;99883.09;;;10.06;100.00
16481;BME280;44634;54.110;12.138;2023-12-20T12:33:24;99897.22;;;10.83;100.00
16481;BME280;44634;54.110;12.138;2023-12-20T12:35:52;99956.25;;;11.42;100.00
16481;BME280;44634;54.110;12.138;2023-12-20T12:38:20;99944.63;;;10.77;100.00
16481;BME280;44634;54.110;12.138;2023-12-20T12:40:49;99940.34;;;11.18;100.00
16481;BME280;44634;54.110;12.138;2023-12-20T12:43:18;99968.06;;;11.64;100.00
16481;BME280;44634;54.110;12.138;2023-12-20T12:45:46;100001.41;;;11.41;100.00
16481;BME280;44634;54.110;12.138;2023-12-20T12:48:16;100004.50;;;11.78;100.00
16481;BME280;44634;54.110;12.138;2023-12-20T12:50:45;99974.25;;;9.93;100.00
16481;BME280;44634;54.110;12.138;2023-12-20T12:53:13;99906.94;;;9.97;100.00
16481;BME280;44634;54.110;12.138;2023-12-20T12:55:41;99886.25;;;9.66;100.00
16481;BME280;44634;54.110;12.138;2023-12-20T12:58:09;99885.97;;;8.61;100.00